NY67 weather

Carter Flight Park Ultralightport
Manlius, New York, United States

Public forecast

Using degrees Fahrenheit for public forecast. Weather courtesy of forecast.io.

Closest aviation weather report (METAR) to Carter Flight Park Ultralightport

Closest report is Syracuse Hancock International Airport, 11.1 nm (20.6 km) NW. Retrieved 2019/10/19 17:54 UTC (22 minutes ago):

KSYR 191754Z 30004KT 10SM FEW025 FEW150 FEW250 13/04 A3005 RMK AO2 SLP176 T01280039 10128 20028 58016

Closest aviation forecast (TAF) to Carter Flight Park Ultralightport

Closest forecast is Syracuse Hancock International Airport, 11.1 nm (20.6 km) NW. Retrieved 2019/10/19 18:22 UTC (0 seconds ago):

TAF KSYR 191720Z 1918/2018 VRB03KT P6SM SKC FM200000 10004KT P6SM SKC FM201300 15006KT P6SM BKN150